createdAt,value
2023-05-02T00:01:10.228Z,11.69
2023-05-02T00:03:37.202Z,11.69
2023-05-02T00:06:04.491Z,11.67
2023-05-02T00:08:30.896Z,11.64
2023-05-02T00:10:57.309Z,11.62
2023-05-02T00:13:23.788Z,11.65
2023-05-02T00:15:50.189Z,11.70
2023-05-02T00:18:16.772Z,11.68
2023-05-02T00:20:43.306Z,11.64
2023-05-02T00:23:12.105Z,11.56
2023-05-02T00:25:46.695Z,11.62
2023-05-02T00:28:13.834Z,11.65
2023-05-02T00:30:47.060Z,11.67
2023-05-02T00:33:15.776Z,11.64
2023-05-02T00:35:42.318Z,11.61
2023-05-02T00:38:09.480Z,11.58
2023-05-02T00:40:46.668Z,11.54
2023-05-02T00:43:14.041Z,11.56
2023-05-02T00:45:43.562Z,11.63
2023-05-02T00:48:11.293Z,11.61
2023-05-02T00:50:40.398Z,11.54
2023-05-02T00:53:08.401Z,11.59
2023-05-02T00:55:36.093Z,11.53
2023-05-02T00:58:19.082Z,11.56
2023-05-02T01:01:27.132Z,11.65
2023-05-02T01:03:59.754Z,11.55
2023-05-02T01:06:41.934Z,11.61
2023-05-02T01:09:37.001Z,11.52
2023-05-02T01:12:19.913Z,11.39
2023-05-02T01:14:53.399Z,11.45
2023-05-02T01:17:22.863Z,11.40
2023-05-02T01:19:55.799Z,11.41
2023-05-02T01:22:24.540Z,11.32
2023-05-02T01:25:20.681Z,11.30
2023-05-02T01:27:50.088Z,11.35
2023-05-02T01:30:18.783Z,11.37
2023-05-02T01:32:49.209Z,11.24
2023-05-02T01:35:17.988Z,11.22
2023-05-02T01:37:47.480Z,11.20
2023-05-02T01:40:19.536Z,11.07
2023-05-02T01:42:48.578Z,11.00
2023-05-02T01:45:16.389Z,10.99
2023-05-02T01:47:44.812Z,10.86
2023-05-02T01:50:16.835Z,10.96
2023-05-02T01:52:45.685Z,10.77
2023-05-02T01:55:15.202Z,10.79
2023-05-02T01:57:44.698Z,10.78
2023-05-02T02:00:12.816Z,10.72
2023-05-02T02:02:43.713Z,10.81
2023-05-02T02:05:12.759Z,10.78
2023-05-02T02:07:39.497Z,10.80
2023-05-02T02:10:06.984Z,10.79
2023-05-02T02:12:43.709Z,10.85
2023-05-02T02:15:16.594Z,10.87
2023-05-02T02:17:46.143Z,10.87
2023-05-02T02:20:15.031Z,10.89
2023-05-02T02:22:44.005Z,10.90
2023-05-02T02:25:15.720Z,10.88
2023-05-02T02:27:42.815Z,10.90
2023-05-02T02:30:10.379Z,10.82
2023-05-02T02:32:37.997Z,10.74
2023-05-02T02:35:05.566Z,10.78
2023-05-02T02:37:37.688Z,10.81
2023-05-02T02:40:10.237Z,10.80
2023-05-02T02:42:44.754Z,10.85
2023-05-02T02:45:17.031Z,10.90
2023-05-02T02:48:21.068Z,10.89
2023-05-02T02:51:15.768Z,10.89
2023-05-02T02:54:23.005Z,10.77
2023-05-02T02:57:02.672Z,10.89
2023-05-02T02:59:35.761Z,10.83
2023-05-02T03:02:12.370Z,10.75
2023-05-02T03:04:44.852Z,10.73
2023-05-02T03:07:11.713Z,10.84
2023-05-02T03:09:42.815Z,10.80
2023-05-02T03:12:11.805Z,10.74
2023-05-02T03:14:40.605Z,10.73
2023-05-02T03:17:08.600Z,10.65
2023-05-02T03:19:37.312Z,10.71
2023-05-02T03:22:05.763Z,10.74
2023-05-02T03:24:34.371Z,10.77
2023-05-02T03:27:01.941Z,10.84
2023-05-02T03:29:33.842Z,10.79
2023-05-02T03:32:01.292Z,10.74
2023-05-02T03:34:27.792Z,10.72
2023-05-02T03:36:54.932Z,10.77
2023-05-02T03:39:21.374Z,10.68
2023-05-02T03:41:48.345Z,10.71
2023-05-02T03:44:18.609Z,10.65
2023-05-02T03:46:45.137Z,10.66
2023-05-02T03:49:13.785Z,10.62
2023-05-02T03:51:43.218Z,10.60
2023-05-02T03:54:09.988Z,10.54
2023-05-02T03:56:42.189Z,10.56
2023-05-02T03:59:19.649Z,10.49
2023-05-02T04:01:50.405Z,10.50
2023-05-02T04:04:18.800Z,10.56
2023-05-02T04:06:49.489Z,10.56
2023-05-02T04:09:16.796Z,10.41
2023-05-02T04:11:50.293Z,10.46
2023-05-02T04:14:18.406Z,10.41
2023-05-02T04:16:50.029Z,10.50
2023-05-02T04:19:21.957Z,10.37
2023-05-02T04:21:48.771Z,10.40
2023-05-02T04:24:16.207Z,10.31
2023-05-02T04:26:42.750Z,10.38
2023-05-02T04:29:12.002Z,10.25
2023-05-02T04:31:39.100Z,10.25
2023-05-02T04:34:07.156Z,10.26
2023-05-02T04:36:40.338Z,10.26
2023-05-02T04:39:09.791Z,10.18
2023-05-02T04:41:40.672Z,10.22
2023-05-02T04:44:07.804Z,10.09
2023-05-02T04:46:36.064Z,10.00
2023-05-02T04:49:02.882Z,9.96
2023-05-02T04:51:31.841Z,9.82
2023-05-02T04:53:58.678Z,9.54
2023-05-02T04:56:28.439Z,9.38
2023-05-02T04:58:55.132Z,9.27
2023-05-02T05:01:24.046Z,9.19
2023-05-02T05:03:50.676Z,9.15
2023-05-02T05:06:19.274Z,9.02
2023-05-02T05:08:46.519Z,9.03
2023-05-02T05:11:15.802Z,8.95
2023-05-02T05:13:42.736Z,8.90
2023-05-02T05:16:11.957Z,8.98
2023-05-02T05:18:41.499Z,8.75
2023-05-02T05:21:11.295Z,8.87
2023-05-02T05:23:38.897Z,8.77
2023-05-02T05:26:10.955Z,8.69
2023-05-02T05:28:39.308Z,8.63
2023-05-02T05:31:07.792Z,8.68
2023-05-02T05:33:35.907Z,8.56
2023-05-02T05:36:17.177Z,8.53
2023-05-02T05:38:43.922Z,8.45
2023-05-02T05:41:11.485Z,8.52
2023-05-02T05:43:42.456Z,8.40
2023-05-02T05:46:09.122Z,8.42
2023-05-02T05:48:37.334Z,8.34
2023-05-02T05:51:05.390Z,8.35
2023-05-02T05:53:32.701Z,8.38
2023-05-02T05:56:09.678Z,8.32
2023-05-02T05:58:38.653Z,8.33
2023-05-02T06:01:06.667Z,8.37
2023-05-02T06:03:33.762Z,8.30
2023-05-02T06:06:00.492Z,8.33
2023-05-02T06:08:26.992Z,8.22
2023-05-02T06:10:53.694Z,8.25
2023-05-02T06:13:20.114Z,8.24
2023-05-02T06:15:47.409Z,8.19
2023-05-02T06:18:14.343Z,8.10
2023-05-02T06:20:42.652Z,8.19
2023-05-02T06:23:09.123Z,8.34
2023-05-02T06:25:38.489Z,8.37
2023-05-02T06:28:04.974Z,8.35
2023-05-02T06:30:31.447Z,8.43
2023-05-02T06:32:57.902Z,8.56
2023-05-02T06:35:24.366Z,8.69
2023-05-02T06:37:50.783Z,8.75
2023-05-02T06:40:17.247Z,8.77
2023-05-02T06:42:43.879Z,8.77
2023-05-02T06:45:10.830Z,8.85
2023-05-02T06:47:37.570Z,9.02
2023-05-02T06:50:04.203Z,9.02
2023-05-02T06:52:30.988Z,8.96
2023-05-02T06:54:57.854Z,8.98
2023-05-02T06:57:24.973Z,9.08
2023-05-02T06:59:51.471Z,9.12
2023-05-02T07:02:18.049Z,9.04
2023-05-02T07:04:44.705Z,9.08
2023-05-02T07:07:11.341Z,9.09
2023-05-02T07:09:38.180Z,9.18
2023-05-02T07:12:06.759Z,9.20
2023-05-02T07:14:33.529Z,9.25
2023-05-02T07:17:00.165Z,9.25
2023-05-02T07:19:27.238Z,9.22
2023-05-02T07:21:53.785Z,9.24
2023-05-02T07:24:20.215Z,9.20
2023-05-02T07:26:46.772Z,9.17
2023-05-02T07:29:13.161Z,9.12
2023-05-02T07:31:39.759Z,8.98
2023-05-02T07:34:06.474Z,9.08
2023-05-02T07:36:32.886Z,8.95
2023-05-02T07:38:59.686Z,8.79
2023-05-02T07:41:26.124Z,8.83
2023-05-02T07:43:52.836Z,8.79
2023-05-02T07:46:19.278Z,8.73
2023-05-02T07:48:45.918Z,8.76
2023-05-02T07:51:13.199Z,8.81
2023-05-02T07:53:39.944Z,8.88
2023-05-02T07:56:08.340Z,8.88
2023-05-02T07:58:36.436Z,8.92
2023-05-02T08:01:03.888Z,8.88
2023-05-02T08:03:31.687Z,8.94
2023-05-02T08:05:58.245Z,8.86
2023-05-02T08:08:25.128Z,8.95
2023-05-02T08:10:51.609Z,8.85
2023-05-02T08:13:18.158Z,9.01
2023-05-02T08:15:44.894Z,8.99
2023-05-02T08:18:11.805Z,9.01
2023-05-02T08:20:38.323Z,8.97
2023-05-02T08:23:04.807Z,8.96
2023-05-02T08:25:31.197Z,8.85
2023-05-02T08:27:57.613Z,8.73
2023-05-02T08:30:24.502Z,8.64
2023-05-02T08:32:50.994Z,8.61
2023-05-02T08:35:17.978Z,8.55
2023-05-02T08:37:44.440Z,8.52
2023-05-02T08:40:12.363Z,8.52
2023-05-02T08:42:43.269Z,8.42
2023-05-02T08:45:13.915Z,8.57
2023-05-02T08:47:41.760Z,8.64
2023-05-02T08:50:10.612Z,8.77
2023-05-02T08:52:38.460Z,8.61
2023-05-02T08:55:07.599Z,8.74
2023-05-02T08:57:34.164Z,8.67
2023-05-02T09:00:01.042Z,8.68
2023-05-02T09:03:06.165Z,8.94
2023-05-02T09:05:42.042Z,9.04
2023-05-02T09:08:09.249Z,9.03
2023-05-02T09:10:39.122Z,9.12
2023-05-02T09:13:40.723Z,9.35
2023-05-02T09:16:08.515Z,9.41
2023-05-02T09:18:45.713Z,9.60
2023-05-02T09:21:18.082Z,9.57
2023-05-02T09:23:47.690Z,9.68
2023-05-02T09:26:33.563Z,9.76
2023-05-02T09:29:09.146Z,9.61
2023-05-02T09:34:13.795Z,9.69
2023-05-02T09:36:41.953Z,9.79
2023-05-02T09:39:17.048Z,9.95
2023-05-02T09:41:45.417Z,9.94
2023-05-02T09:44:13.502Z,10.09
2023-05-02T09:46:44.493Z,10.16
2023-05-02T09:49:11.053Z,10.29
2023-05-02T09:51:38.289Z,10.09
2023-05-02T09:54:04.828Z,10.16
2023-05-02T09:56:31.391Z,10.22
2023-05-02T09:59:15.482Z,10.31
2023-05-02T10:01:42.633Z,10.29
2023-05-02T10:04:18.951Z,10.38
2023-05-02T10:06:46.159Z,10.51
2023-05-02T10:09:18.853Z,10.37
2023-05-02T10:11:50.491Z,10.22
2023-05-02T10:14:20.235Z,10.21
2023-05-02T10:16:53.047Z,10.52
2023-05-02T10:19:24.494Z,10.48
2023-05-02T10:21:51.655Z,10.23
2023-05-02T10:24:19.140Z,10.31
2023-05-02T10:26:45.589Z,10.30
2023-05-02T10:29:12.059Z,10.59
2023-05-02T10:31:41.490Z,10.51
2023-05-02T10:34:11.466Z,10.66
2023-05-02T10:36:38.255Z,10.82
2023-05-02T10:39:05.268Z,10.82
2023-05-02T10:41:34.076Z,10.94
2023-05-02T10:44:02.134Z,10.84
2023-05-02T10:46:43.246Z,11.20
2023-05-02T10:49:11.600Z,11.29
2023-05-02T10:51:41.107Z,11.29
2023-05-02T10:54:19.898Z,11.07
2023-05-02T10:57:06.781Z,11.14
2023-05-02T10:59:41.211Z,11.12
2023-05-02T11:02:28.019Z,11.32
2023-05-02T11:05:07.864Z,11.40
2023-05-02T11:07:38.292Z,11.19
2023-05-02T11:10:16.692Z,11.43
2023-05-02T11:12:48.475Z,11.47
2023-05-02T11:15:36.521Z,11.55
2023-05-02T11:18:07.606Z,11.56
2023-05-02T11:20:36.451Z,11.46
2023-05-02T11:23:16.007Z,11.05
2023-05-02T11:25:45.387Z,11.02
2023-05-02T11:28:37.098Z,10.82
2023-05-02T11:31:08.340Z,10.73
2023-05-02T11:33:34.764Z,11.08
2023-05-02T11:36:01.476Z,11.55
2023-05-02T11:38:37.076Z,11.38
2023-05-02T11:41:04.281Z,11.16
2023-05-02T11:43:32.120Z,10.99
2023-05-02T11:46:00.391Z,11.32
2023-05-02T11:48:29.169Z,11.20
2023-05-02T11:51:03.472Z,11.38
2023-05-02T11:53:31.280Z,11.48
2023-05-02T11:56:02.842Z,11.56
2023-05-02T11:58:32.459Z,11.94
2023-05-02T12:01:11.923Z,12.00
2023-05-02T12:03:38.739Z,12.14
2023-05-02T12:06:16.031Z,12.38
2023-05-02T12:08:44.554Z,12.71
2023-05-02T12:11:15.988Z,13.23
2023-05-02T12:13:47.640Z,13.14
2023-05-02T12:16:14.655Z,13.38
2023-05-02T12:18:41.208Z,12.81
2023-05-02T12:21:09.361Z,12.86
2023-05-02T12:23:37.418Z,12.74
2023-05-02T12:26:21.273Z,13.07
2023-05-02T12:28:52.555Z,13.08
2023-05-02T12:31:19.709Z,12.90
2023-05-02T12:33:48.385Z,12.70
2023-05-02T12:36:14.874Z,12.48
2023-05-02T12:38:49.075Z,12.68
2023-05-02T12:41:15.561Z,12.37
2023-05-02T12:43:47.593Z,12.21
2023-05-02T12:46:14.150Z,12.11
2023-05-02T12:48:40.900Z,12.11
2023-05-02T12:51:21.068Z,11.98
2023-05-02T12:53:47.497Z,12.01
2023-05-02T12:56:14.058Z,11.96
2023-05-02T12:58:47.689Z,12.03
2023-05-02T13:01:15.578Z,12.17
2023-05-02T13:03:43.257Z,12.57
2023-05-02T13:06:10.213Z,12.33
2023-05-02T13:08:36.826Z,12.38
2023-05-02T13:11:04.040Z,12.18
2023-05-02T13:13:31.146Z,12.04
2023-05-02T13:15:57.541Z,12.22
2023-05-02T13:18:24.192Z,12.22
2023-05-02T13:20:50.594Z,11.97
2023-05-02T13:23:17.029Z,11.94
2023-05-02T13:25:43.536Z,12.03
2023-05-02T13:28:09.959Z,12.10
2023-05-02T13:30:36.825Z,12.19
2023-05-02T13:33:03.356Z,12.05
2023-05-02T13:35:29.827Z,12.09
2023-05-02T13:37:56.242Z,12.00
2023-05-02T13:40:22.684Z,12.05
2023-05-02T13:42:49.103Z,12.14
2023-05-02T13:45:17.196Z,12.09
2023-05-02T13:47:43.910Z,12.11
2023-05-02T13:50:10.960Z,12.02
2023-05-02T13:52:37.553Z,12.22
2023-05-02T13:55:04.803Z,12.06
2023-05-02T13:57:31.707Z,11.93
2023-05-02T13:59:58.101Z,11.90
2023-05-02T14:02:24.563Z,11.85
2023-05-02T14:04:51.615Z,11.62
2023-05-02T14:07:18.582Z,11.56
2023-05-02T14:09:45.017Z,11.74
2023-05-02T14:12:11.587Z,12.00
2023-05-02T14:14:38.489Z,12.23
2023-05-02T14:17:05.752Z,12.22
2023-05-02T14:19:32.460Z,12.23
2023-05-02T14:21:58.904Z,12.01
2023-05-02T14:24:25.363Z,11.93
2023-05-02T14:26:51.959Z,12.01
2023-05-02T14:29:20.365Z,11.94
2023-05-02T14:31:47.374Z,11.82
2023-05-02T14:34:13.951Z,11.95
2023-05-02T14:36:40.640Z,11.82
2023-05-02T14:39:07.266Z,11.95
2023-05-02T14:41:33.883Z,11.76
2023-05-02T14:44:00.443Z,11.60
2023-05-02T14:46:27.168Z,11.57
2023-05-02T14:48:53.860Z,11.49
2023-05-02T14:51:20.257Z,11.62
2023-05-02T14:53:47.919Z,11.61
2023-05-02T14:56:15.973Z,11.57
2023-05-02T14:58:42.827Z,11.38
2023-05-02T15:01:16.855Z,11.28
2023-05-02T15:04:03.624Z,11.29
2023-05-02T15:06:33.881Z,11.37
2023-05-02T15:09:02.540Z,11.32
2023-05-02T15:11:28.904Z,11.22
2023-05-02T15:13:57.586Z,10.88
2023-05-02T15:16:26.982Z,10.92
2023-05-02T15:18:53.913Z,10.84
2023-05-02T15:21:20.492Z,10.80
2023-05-02T15:23:47.428Z,10.72
2023-05-02T15:26:13.924Z,10.74
2023-05-02T15:28:40.877Z,10.79
2023-05-02T15:31:07.587Z,10.82
2023-05-02T15:33:34.004Z,10.85
2023-05-02T15:36:01.143Z,10.83
2023-05-02T15:38:27.909Z,10.86
2023-05-02T15:40:58.862Z,10.83
2023-05-02T15:43:26.216Z,10.75
2023-05-02T15:45:57.758Z,10.82
2023-05-02T15:48:27.882Z,10.69
2023-05-02T15:50:54.608Z,10.84
2023-05-02T15:53:22.888Z,10.75
2023-05-02T15:55:53.107Z,10.68
2023-05-02T15:58:20.070Z,10.66
2023-05-02T16:00:49.425Z,10.67
2023-05-02T16:03:16.009Z,10.79
2023-05-02T16:05:42.549Z,10.67
2023-05-02T16:08:09.375Z,10.81
2023-05-02T16:10:36.643Z,10.76
2023-05-02T16:13:03.607Z,10.87
2023-05-02T16:15:30.379Z,10.78
2023-05-02T16:17:57.142Z,10.66
2023-05-02T16:20:23.779Z,10.50
2023-05-02T16:22:50.341Z,10.59
2023-05-02T16:25:17.312Z,10.54
2023-05-02T16:27:44.406Z,10.52
2023-05-02T16:30:11.320Z,10.38
2023-05-02T16:32:38.115Z,10.28
2023-05-02T16:35:07.470Z,10.33
2023-05-02T16:37:34.954Z,10.26
2023-05-02T16:40:06.582Z,10.28
2023-05-02T16:42:33.958Z,10.35
2023-05-02T16:45:01.082Z,10.26
2023-05-02T16:47:28.369Z,10.32
2023-05-02T16:49:59.249Z,10.34
2023-05-02T16:52:26.443Z,10.24
2023-05-02T16:54:53.303Z,10.20
2023-05-02T16:57:21.144Z,10.19
2023-05-02T16:59:48.782Z,10.18
2023-05-02T17:02:16.098Z,10.18
2023-05-02T17:04:42.932Z,10.12
2023-05-02T17:07:11.722Z,10.13
2023-05-02T17:09:39.709Z,10.06
2023-05-02T17:12:07.517Z,9.96
2023-05-02T17:14:34.425Z,9.83
2023-05-02T17:17:02.320Z,9.83
2023-05-02T17:19:29.558Z,9.85
2023-05-02T17:21:57.843Z,9.76
2023-05-02T17:24:24.518Z,9.86
2023-05-02T17:26:51.730Z,9.82
2023-05-02T17:29:18.537Z,9.78
2023-05-02T17:31:45.113Z,9.82
2023-05-02T17:34:11.538Z,9.74
2023-05-02T17:36:41.859Z,9.80
2023-05-02T17:39:08.955Z,9.70
2023-05-02T17:41:36.461Z,9.74
2023-05-02T17:44:05.061Z,9.59
2023-05-02T17:46:32.416Z,9.61
2023-05-02T17:48:58.907Z,9.51
2023-05-02T17:51:25.294Z,9.48
2023-05-02T17:53:52.303Z,9.61
2023-05-02T17:56:18.840Z,9.58
2023-05-02T17:58:45.672Z,9.58
2023-05-02T18:01:13.826Z,9.55
2023-05-02T18:03:40.797Z,9.53
2023-05-02T18:06:07.887Z,9.55
2023-05-02T18:08:34.695Z,9.47
2023-05-02T18:11:01.944Z,9.51
2023-05-02T18:13:28.352Z,9.53
2023-05-02T18:15:56.916Z,9.44
2023-05-02T18:18:23.581Z,9.44
2023-05-02T18:20:50.058Z,9.34
2023-05-02T18:23:16.968Z,9.44
2023-05-02T18:25:43.939Z,9.39
2023-05-02T18:28:10.534Z,9.33
2023-05-02T18:30:38.103Z,9.34
2023-05-02T18:33:05.143Z,9.28
2023-05-02T18:35:31.580Z,9.34
2023-05-02T18:37:58.067Z,9.31
2023-05-02T18:40:24.755Z,9.22
2023-05-02T18:42:51.425Z,9.19
2023-05-02T18:45:18.363Z,9.14
2023-05-02T18:47:44.931Z,9.15
2023-05-02T18:50:11.493Z,9.14
2023-05-02T18:52:38.251Z,9.14
2023-05-02T18:55:06.084Z,9.07
2023-05-02T18:57:33.772Z,9.03
2023-05-02T19:00:00.772Z,8.95
2023-05-02T19:02:30.009Z,8.92
2023-05-02T19:04:56.568Z,8.84
2023-05-02T19:07:22.990Z,8.77
2023-05-02T19:09:49.384Z,8.69
2023-05-02T19:12:15.823Z,8.65
2023-05-02T19:14:42.634Z,8.67
2023-05-02T19:17:09.212Z,8.60
2023-05-02T19:19:35.772Z,8.61
2023-05-02T19:22:03.738Z,8.50
2023-05-02T19:24:30.744Z,8.41
2023-05-02T19:26:57.708Z,8.23
2023-05-02T19:29:24.104Z,8.16
2023-05-02T19:31:50.653Z,8.16
2023-05-02T19:34:17.112Z,8.07
2023-05-02T19:36:43.562Z,8.12
2023-05-02T19:39:13.002Z,8.07
2023-05-02T19:41:42.454Z,8.09
2023-05-02T19:44:08.864Z,8.00
2023-05-02T19:46:35.414Z,7.96
2023-05-02T19:49:02.392Z,7.89
2023-05-02T19:51:29.553Z,7.87
2023-05-02T19:53:58.595Z,7.88
2023-05-02T19:56:26.702Z,7.78
2023-05-02T19:58:53.978Z,7.76
2023-05-02T20:01:20.917Z,7.70
2023-05-02T20:03:47.545Z,7.68
2023-05-02T20:06:14.562Z,7.70
2023-05-02T20:08:41.101Z,7.63
2023-05-02T20:11:07.728Z,7.59
2023-05-02T20:13:34.112Z,7.55
2023-05-02T20:16:00.697Z,7.55
2023-05-02T20:18:27.931Z,7.50
2023-05-02T20:20:54.403Z,7.53
2023-05-02T20:23:20.756Z,7.48
2023-05-02T20:25:47.148Z,7.47
2023-05-02T20:28:13.551Z,7.49
2023-05-02T20:30:40.492Z,7.42
2023-05-02T20:33:14.864Z,7.42
2023-05-02T20:35:42.570Z,7.36
2023-05-02T20:38:09.940Z,7.33
2023-05-02T20:40:39.667Z,7.31
2023-05-02T20:43:06.505Z,7.26
2023-05-02T20:45:33.306Z,7.20
2023-05-02T20:47:59.760Z,7.23
2023-05-02T20:50:26.587Z,7.11
2023-05-02T20:52:53.229Z,7.15
2023-05-02T20:55:22.539Z,7.07
2023-05-02T20:57:53.618Z,7.02
2023-05-02T21:00:23.612Z,6.98
2023-05-02T21:02:50.149Z,6.99
2023-05-02T21:05:16.788Z,6.93
2023-05-02T21:07:44.611Z,6.87
2023-05-02T21:10:11.167Z,6.85
2023-05-02T21:12:37.745Z,6.81
2023-05-02T21:15:04.797Z,6.75
2023-05-02T21:17:31.222Z,6.74
2023-05-02T21:19:57.715Z,6.67
2023-05-02T21:22:24.235Z,6.64
2023-05-02T21:24:50.801Z,6.60
2023-05-02T21:27:17.244Z,6.60
2023-05-02T21:29:43.671Z,6.48
2023-05-02T21:32:10.568Z,6.43
2023-05-02T21:34:37.018Z,6.41
2023-05-02T21:37:03.998Z,6.43
2023-05-02T21:39:30.380Z,6.36
2023-05-02T21:41:56.911Z,6.29
2023-05-02T21:44:23.295Z,6.28
2023-05-02T21:46:50.645Z,6.25
2023-05-02T21:49:17.162Z,6.28
2023-05-02T21:51:43.585Z,6.18
2023-05-02T21:54:10.138Z,6.14
2023-05-02T21:56:36.605Z,6.11
2023-05-02T21:59:03.389Z,6.11
2023-05-02T22:01:29.994Z,6.07
2023-05-02T22:03:58.137Z,6.05
2023-05-02T22:06:25.016Z,6.02
2023-05-02T22:08:51.542Z,6.00
2023-05-02T22:11:43.457Z,5.99
2023-05-02T22:14:11.934Z,5.91
2023-05-02T22:16:39.884Z,5.84
2023-05-02T22:19:07.435Z,5.81
2023-05-02T22:21:34.179Z,5.83
2023-05-02T22:24:00.714Z,5.79
2023-05-02T22:26:27.171Z,5.79
2023-05-02T22:28:53.664Z,5.72
2023-05-02T22:31:20.575Z,5.72
2023-05-02T22:33:49.776Z,5.64
2023-05-02T22:36:17.418Z,5.61
2023-05-02T22:38:44.175Z,5.54
2023-05-02T22:41:10.986Z,5.55
2023-05-02T22:43:37.460Z,5.51
2023-05-02T22:46:03.896Z,5.53
2023-05-02T22:48:30.703Z,5.56
2023-05-02T22:50:57.114Z,5.56
2023-05-02T22:53:23.565Z,5.53
2023-05-02T22:55:51.191Z,5.54
2023-05-02T22:58:17.577Z,5.48
2023-05-02T23:00:44.023Z,5.42
2023-05-02T23:03:11.544Z,5.44
2023-05-02T23:05:38.055Z,5.42
2023-05-02T23:08:04.606Z,5.28
2023-05-02T23:10:31.060Z,5.26
2023-05-02T23:12:57.477Z,5.29
2023-05-02T23:15:24.220Z,5.24
2023-05-02T23:17:50.708Z,5.22
2023-05-02T23:20:19.455Z,5.18
2023-05-02T23:22:46.227Z,5.24
2023-05-02T23:25:14.177Z,5.17
2023-05-02T23:27:40.770Z,5.20
2023-05-02T23:30:08.442Z,5.11
2023-05-02T23:32:35.202Z,5.08
2023-05-02T23:35:03.029Z,5.06
2023-05-02T23:37:29.646Z,5.00
2023-05-02T23:39:58.034Z,4.96
2023-05-02T23:42:24.679Z,4.92
2023-05-02T23:44:51.119Z,4.92
2023-05-02T23:47:17.798Z,4.90
2023-05-02T23:49:44.340Z,4.77
2023-05-02T23:52:10.990Z,4.78
2023-05-02T23:54:37.498Z,4.74
2023-05-02T23:57:04.466Z,4.75
2023-05-02T23:59:30.908Z,4.82
